createdAt,value
2022-09-18T00:01:48.183Z,96513.09
2022-09-18T00:04:22.643Z,96516.19
2022-09-18T00:06:55.782Z,96516.31
2022-09-18T00:09:28.667Z,96515.97
2022-09-18T00:12:01.601Z,96514.19
2022-09-18T00:14:34.470Z,96513.84
2022-09-18T00:17:09.272Z,96509.38
2022-09-18T00:19:43.646Z,96506.34
2022-09-18T00:22:16.485Z,96504.88
2022-09-18T00:24:49.277Z,96501.06
2022-09-18T00:27:22.557Z,96502.31
2022-09-18T00:29:55.413Z,96499.63
2022-09-18T00:32:28.247Z,96505.44
2022-09-18T00:35:05.145Z,96495.50
2022-09-18T00:37:38.270Z,96496.59
2022-09-18T00:40:12.015Z,96493.13
2022-09-18T00:42:47.375Z,96491.56
2022-09-18T00:45:20.505Z,96486.41
2022-09-18T00:47:53.928Z,96481.28
2022-09-18T00:50:28.812Z,96487.34
2022-09-18T00:53:05.991Z,96485.56
2022-09-18T00:55:39.272Z,96486.47
2022-09-18T00:58:12.136Z,96490.06
2022-09-18T01:00:45.050Z,96494.09
2022-09-18T01:03:19.435Z,96490.09
2022-09-18T01:06:07.151Z,96481.13
2022-09-18T01:08:56.698Z,96482.16
2022-09-18T01:11:37.839Z,96485.81
2022-09-18T01:14:26.525Z,96480.69
2022-09-18T01:17:07.306Z,96474.44
2022-09-18T01:20:17.750Z,96473.53
2022-09-18T01:23:15.095Z,96477.22
2022-09-18T01:26:05.660Z,96477.44
2022-09-18T01:28:45.149Z,96485.38
2022-09-18T01:31:21.850Z,96472.16
2022-09-18T01:34:02.147Z,96481.19
2022-09-18T01:36:41.267Z,96486.13
2022-09-18T01:39:21.683Z,96479.53
2022-09-18T01:41:56.212Z,96482.53
2022-09-18T01:44:34.423Z,96482.97
2022-09-18T01:47:12.668Z,96489.47
2022-09-18T01:49:48.377Z,96480.63
2022-09-18T01:52:28.674Z,96483.31
2022-09-18T01:55:06.443Z,96478.59
2022-09-18T01:57:44.528Z,96482.41
2022-09-18T02:00:20.024Z,96479.28
2022-09-18T02:02:59.631Z,96475.03
2022-09-18T02:05:36.407Z,96473.81
2022-09-18T02:08:15.018Z,96467.66
2022-09-18T02:10:54.930Z,96469.88
2022-09-18T02:13:33.306Z,96469.09
2022-09-18T02:16:13.453Z,96469.88
2022-09-18T02:18:52.637Z,96469.88
2022-09-18T02:21:28.708Z,96469.09
2022-09-18T02:24:06.306Z,96472.56
2022-09-18T02:26:42.171Z,96484.84
2022-09-18T02:29:16.916Z,96477.91
2022-09-18T02:31:52.024Z,96472.22
2022-09-18T02:34:24.984Z,96478.38
2022-09-18T02:37:24.511Z,96481.19
2022-09-18T02:40:23.058Z,96481.28
2022-09-18T02:43:11.130Z,96477.50
2022-09-18T02:45:54.597Z,96478.41
2022-09-18T02:48:48.101Z,96480.75
2022-09-18T02:51:30.589Z,96472.03
2022-09-18T02:54:08.305Z,96475.16
2022-09-18T02:56:45.569Z,96473.59
2022-09-18T02:59:22.763Z,96474.84
2022-09-18T03:01:57.103Z,96463.66
2022-09-18T03:04:31.516Z,96474.38
2022-09-18T03:07:04.584Z,96474.38
2022-09-18T03:09:38.091Z,96471.72
2022-09-18T03:12:11.209Z,96466.66
2022-09-18T03:14:44.235Z,96462.09
2022-09-18T03:17:17.713Z,96465.88
2022-09-18T03:19:52.006Z,96462.44
2022-09-18T03:22:24.921Z,96458.97
2022-09-18T03:24:57.804Z,96471.16
2022-09-18T03:27:30.670Z,96465.78
2022-09-18T03:30:03.485Z,96467.22
2022-09-18T03:32:36.443Z,96466.69
2022-09-18T03:35:11.466Z,96461.97
2022-09-18T03:37:44.432Z,96464.41
2022-09-18T03:40:17.660Z,96469.97
2022-09-18T03:42:52.043Z,96467.38
2022-09-18T03:45:25.902Z,96472.97
2022-09-18T03:47:58.716Z,96474.31
2022-09-18T03:50:33.213Z,96468.81
2022-09-18T03:53:06.109Z,96475.50
2022-09-18T03:55:39.119Z,96473.31
2022-09-18T03:58:12.166Z,96483.47
2022-09-18T04:00:45.220Z,96471.50
2022-09-18T04:03:18.171Z,96480.69
2022-09-18T04:05:52.693Z,96478.00
2022-09-18T04:08:25.590Z,96483.78
2022-09-18T04:10:58.470Z,96473.53
2022-09-18T04:13:31.407Z,96474.47
2022-09-18T04:16:04.301Z,96476.94
2022-09-18T04:18:37.232Z,96477.06
2022-09-18T04:21:13.607Z,96482.66
2022-09-18T04:23:46.649Z,96488.13
2022-09-18T04:26:21.935Z,96481.78
2022-09-18T04:28:54.917Z,96491.16
2022-09-18T04:31:27.979Z,96479.47
2022-09-18T04:34:01.200Z,96480.03
2022-09-18T04:36:36.088Z,96479.03
2022-09-18T04:39:08.961Z,96478.38
2022-09-18T04:41:41.762Z,96476.94
2022-09-18T04:44:14.664Z,96485.06
2022-09-18T04:46:49.828Z,96482.53
2022-09-18T04:49:22.878Z,96482.19
2022-09-18T04:51:57.054Z,96476.16
2022-09-18T04:54:30.098Z,96482.75
2022-09-18T04:57:02.958Z,96480.19
2022-09-18T04:59:35.767Z,96478.44
2022-09-18T05:02:11.233Z,96480.00
2022-09-18T05:04:44.233Z,96479.34
2022-09-18T05:07:18.478Z,96484.81
2022-09-18T05:09:51.734Z,96484.03
2022-09-18T05:12:24.911Z,96486.03
2022-09-18T05:14:57.854Z,96481.13
2022-09-18T05:17:32.793Z,96490.75
2022-09-18T05:20:06.359Z,96483.16
2022-09-18T05:22:40.916Z,96487.06
2022-09-18T05:25:14.145Z,96490.50
2022-09-18T05:27:54.688Z,96491.41
2022-09-18T05:30:28.250Z,96490.31
2022-09-18T05:33:02.892Z,96496.88
2022-09-18T05:35:37.532Z,96500.03
2022-09-18T05:38:13.443Z,96508.19
2022-09-18T05:40:46.903Z,96517.81
2022-09-18T05:43:20.599Z,96523.59
2022-09-18T05:45:53.655Z,96528.63
2022-09-18T05:48:26.909Z,96539.03
2022-09-18T05:51:01.090Z,96540.59
2022-09-18T05:53:36.733Z,96547.97
2022-09-18T05:56:09.988Z,96551.88
2022-09-18T05:58:42.961Z,96551.22
2022-09-18T06:01:15.946Z,96548.22
2022-09-18T06:03:50.454Z,96553.34
2022-09-18T06:06:23.298Z,96549.66
2022-09-18T06:08:57.624Z,96560.94
2022-09-18T06:11:30.429Z,96556.13
2022-09-18T06:14:03.342Z,96561.38
2022-09-18T06:16:41.328Z,96562.38
2022-09-18T06:19:14.891Z,96563.72
2022-09-18T06:21:47.893Z,96564.38
2022-09-18T06:24:22.126Z,96561.56
2022-09-18T06:26:55.014Z,96566.03
2022-09-18T06:29:28.904Z,96569.38
2022-09-18T06:32:02.018Z,96561.97
2022-09-18T06:34:38.630Z,96556.47
2022-09-18T06:37:12.253Z,96555.16
2022-09-18T06:39:47.374Z,96561.28
2022-09-18T06:42:20.297Z,96556.53
2022-09-18T06:44:53.101Z,96555.72
2022-09-18T06:47:26.105Z,96549.47
2022-09-18T06:49:58.999Z,96554.78
2022-09-18T06:52:33.178Z,96560.06
2022-09-18T06:55:08.121Z,96559.22
2022-09-18T06:57:40.999Z,96554.81
2022-09-18T07:00:14.218Z,96556.22
2022-09-18T07:02:47.224Z,96553.34
2022-09-18T07:05:20.296Z,96556.53
2022-09-18T07:07:53.180Z,96552.03
2022-09-18T07:10:28.167Z,96559.75
2022-09-18T07:13:02.832Z,96554.44
2022-09-18T07:15:35.803Z,96548.25
2022-09-18T07:18:09.219Z,96549.84
2022-09-18T07:20:42.063Z,96550.28
2022-09-18T07:23:15.011Z,96551.94
2022-09-18T07:25:49.216Z,96556.94
2022-09-18T07:28:31.668Z,96538.19
2022-09-18T07:31:05.404Z,96552.16
2022-09-18T07:33:38.395Z,96546.06
2022-09-18T07:36:11.527Z,96547.69
2022-09-18T07:38:44.441Z,96555.16
2022-09-18T07:41:18.744Z,96549.50
2022-09-18T07:43:52.026Z,96552.28
2022-09-18T07:46:26.477Z,96549.28
2022-09-18T07:48:59.413Z,96552.13
2022-09-18T07:51:32.222Z,96547.25
2022-09-18T07:54:05.220Z,96548.88
2022-09-18T07:56:43.578Z,96544.44
2022-09-18T07:59:19.349Z,96544.94
2022-09-18T08:01:52.977Z,96542.81
2022-09-18T08:04:26.036Z,96555.66
2022-09-18T08:07:03.886Z,96549.59
2022-09-18T08:09:36.680Z,96545.84
2022-09-18T08:12:10.889Z,96547.53
2022-09-18T08:14:43.745Z,96544.53
2022-09-18T08:17:16.577Z,96548.94
2022-09-18T08:19:49.468Z,96540.53
2022-09-18T08:22:22.406Z,96544.09
2022-09-18T08:24:55.389Z,96545.34
2022-09-18T08:27:29.573Z,96544.69
2022-09-18T08:30:02.526Z,96544.75
2022-09-18T08:32:35.714Z,96542.50
2022-09-18T08:35:09.113Z,96549.19
2022-09-18T08:37:50.007Z,96556.19
2022-09-18T08:40:31.833Z,96559.31
2022-09-18T08:43:10.096Z,96559.78
2022-09-18T08:45:56.078Z,96563.38
2022-09-18T08:48:34.522Z,96556.81
2022-09-18T08:51:17.083Z,96562.28
2022-09-18T08:53:55.798Z,96562.28
2022-09-18T08:56:29.961Z,96558.44
2022-09-18T08:59:08.921Z,96546.56
2022-09-18T09:01:47.440Z,96539.63
2022-09-18T09:04:28.461Z,96543.97
2022-09-18T09:07:12.905Z,96537.84
2022-09-18T09:10:00.590Z,96542.91
2022-09-18T09:12:44.412Z,96547.22
2022-09-18T09:15:32.027Z,96534.97
2022-09-18T09:18:18.156Z,96535.84
2022-09-18T09:20:53.521Z,96537.84
2022-09-18T09:23:43.767Z,96543.69
2022-09-18T09:26:20.036Z,96528.28
2022-09-18T09:28:59.249Z,96533.03
2022-09-18T09:31:38.557Z,96530.38
2022-09-18T09:34:17.098Z,96530.84
2022-09-18T09:36:52.932Z,96528.16
2022-09-18T09:39:30.527Z,96518.19
2022-09-18T09:42:10.101Z,96524.41
2022-09-18T09:44:49.754Z,96529.44
2022-09-18T09:47:35.539Z,96516.78
2022-09-18T09:50:22.195Z,96511.78
2022-09-18T09:52:59.720Z,96509.91
2022-09-18T09:55:38.265Z,96504.50
2022-09-18T09:58:19.538Z,96511.88
2022-09-18T10:00:58.585Z,96510.34
2022-09-18T10:03:42.303Z,96516.22
2022-09-18T10:06:30.734Z,96520.88
2022-09-18T10:09:10.506Z,96519.78
2022-09-18T10:11:48.482Z,96510.91
2022-09-18T10:14:26.389Z,96522.97
2022-09-18T10:17:00.336Z,96518.00
2022-09-18T10:19:39.515Z,96510.78
2022-09-18T10:22:17.059Z,96516.25
2022-09-18T10:24:57.976Z,96510.97
2022-09-18T10:27:30.997Z,96510.69
2022-09-18T10:30:12.686Z,96511.97
2022-09-18T10:32:45.750Z,96496.19
2022-09-18T10:35:42.772Z,96493.59
2022-09-18T10:38:30.627Z,96485.91
2022-09-18T10:41:26.362Z,96492.53
2022-09-18T10:44:05.136Z,96493.72
2022-09-18T10:46:41.856Z,96492.53
2022-09-18T10:49:20.870Z,96485.19
2022-09-18T10:52:32.906Z,96493.31
2022-09-18T10:55:18.268Z,96496.78
2022-09-18T10:58:14.643Z,96479.38
2022-09-18T11:00:51.263Z,96480.53
2022-09-18T11:03:37.622Z,96468.16
2022-09-18T11:06:18.396Z,96457.75
2022-09-18T11:08:54.409Z,96465.50
2022-09-18T11:11:29.955Z,96458.56
2022-09-18T11:14:05.841Z,96454.75
2022-09-18T11:16:43.150Z,96454.84
2022-09-18T11:19:25.408Z,96455.25
2022-09-18T11:22:03.318Z,96458.00
2022-09-18T11:24:42.020Z,96457.28
2022-09-18T11:27:21.368Z,96446.06
2022-09-18T11:29:58.919Z,96446.44
2022-09-18T11:32:32.043Z,96448.78
2022-09-18T11:35:06.309Z,96436.78
2022-09-18T11:37:44.759Z,96440.25
2022-09-18T11:40:23.042Z,96436.75
2022-09-18T11:42:56.849Z,96437.91
2022-09-18T11:45:42.008Z,96436.75
2022-09-18T11:48:25.123Z,96436.38
2022-09-18T11:51:01.720Z,96430.19
2022-09-18T11:53:40.760Z,96435.22
2022-09-18T11:56:21.495Z,96430.94
2022-09-18T11:58:59.930Z,96432.09
2022-09-18T12:01:38.474Z,96416.22
2022-09-18T12:04:17.647Z,96409.63
2022-09-18T12:06:58.615Z,96411.19
2022-09-18T12:09:45.707Z,96407.28
2022-09-18T12:12:24.930Z,96408.09
2022-09-18T12:15:04.506Z,96408.88
2022-09-18T12:17:43.740Z,96396.47
2022-09-18T12:20:23.557Z,96390.63
2022-09-18T12:22:58.387Z,96393.34
2022-09-18T12:25:41.648Z,96387.50
2022-09-18T12:28:28.202Z,96388.28
2022-09-18T12:31:14.492Z,96379.75
2022-09-18T12:33:56.174Z,96377.81
2022-09-18T12:36:54.395Z,96371.59
2022-09-18T12:39:51.204Z,96372.38
2022-09-18T12:42:38.508Z,96362.66
2022-09-18T12:45:40.486Z,96364.59
2022-09-18T12:48:21.377Z,96354.09
2022-09-18T12:51:09.892Z,96351.00
2022-09-18T12:53:53.994Z,96354.09
2022-09-18T12:56:38.992Z,96349.88
2022-09-18T12:59:30.739Z,96351.03
2022-09-18T13:02:23.289Z,96345.97
2022-09-18T13:05:01.986Z,96356.81
2022-09-18T13:07:38.549Z,96346.72
2022-09-18T13:10:18.970Z,96349.78
2022-09-18T13:12:59.432Z,96342.00
2022-09-18T13:15:37.347Z,96350.91
2022-09-18T13:18:23.756Z,96345.47
2022-09-18T13:20:59.455Z,96337.28
2022-09-18T13:23:36.438Z,96325.63
2022-09-18T13:26:13.807Z,96318.22
2022-09-18T13:28:46.660Z,96320.91
2022-09-18T13:31:28.841Z,96313.09
2022-09-18T13:34:05.299Z,96313.50
2022-09-18T13:36:40.538Z,96318.13
2022-09-18T13:39:18.751Z,96301.06
2022-09-18T13:41:54.340Z,96303.78
2022-09-18T13:44:29.010Z,96302.25
2022-09-18T13:47:12.211Z,96290.63
2022-09-18T13:49:52.051Z,96289.50
2022-09-18T13:52:43.181Z,96287.59
2022-09-18T13:55:36.085Z,96288.00
2022-09-18T13:58:35.913Z,96286.50
2022-09-18T14:01:10.956Z,96284.97
2022-09-18T14:03:44.081Z,96289.69
2022-09-18T14:06:46.828Z,96286.97
2022-09-18T14:09:39.282Z,96286.56
2022-09-18T14:12:13.443Z,96284.66
2022-09-18T14:15:01.026Z,96288.91
2022-09-18T14:17:37.067Z,96280.41
2022-09-18T14:20:21.902Z,96285.41
2022-09-18T14:22:56.468Z,96278.44
2022-09-18T14:25:45.680Z,96273.03
2022-09-18T14:28:21.471Z,96273.03
2022-09-18T14:31:14.260Z,96269.53
2022-09-18T14:33:47.094Z,96258.28
2022-09-18T14:36:20.059Z,96267.59
2022-09-18T14:39:27.102Z,96261.00
2022-09-18T14:42:16.437Z,96254.78
2022-09-18T14:45:12.652Z,96256.38
2022-09-18T14:47:48.022Z,96258.31
2022-09-18T14:50:33.844Z,96251.75
2022-09-18T14:53:24.043Z,96246.72
2022-09-18T14:56:02.077Z,96242.88
2022-09-18T14:58:37.702Z,96248.72
2022-09-18T15:01:16.981Z,96248.28
2022-09-18T15:03:52.465Z,96253.75
2022-09-18T15:06:32.160Z,96246.78
2022-09-18T15:09:07.433Z,96246.03
2022-09-18T15:12:01.444Z,96248.75
2022-09-18T15:14:43.030Z,96252.63
2022-09-18T15:17:20.606Z,96243.31
2022-09-18T15:19:58.954Z,96252.25
2022-09-18T15:22:31.979Z,96252.63
2022-09-18T15:25:05.471Z,96249.53
2022-09-18T15:27:40.551Z,96248.75
2022-09-18T15:30:18.742Z,96258.84
2022-09-18T15:32:56.547Z,96258.78
2022-09-18T15:35:31.314Z,96259.56
2022-09-18T15:38:06.879Z,96266.91
2022-09-18T15:40:40.857Z,96263.78
2022-09-18T15:46:28.041Z,96259.53
2022-09-18T15:49:25.377Z,96256.03
2022-09-18T15:51:59.072Z,96248.66
2022-09-18T15:54:31.890Z,96263.38
2022-09-18T15:57:05.613Z,96258.31
2022-09-18T15:59:40.914Z,96249.00
2022-09-18T16:02:27.653Z,96240.88
2022-09-18T16:05:08.553Z,96249.38
2022-09-18T16:07:54.077Z,96249.34
2022-09-18T16:10:50.659Z,96250.84
2022-09-18T16:13:36.708Z,96245.78
2022-09-18T16:16:23.863Z,96248.44
2022-09-18T16:19:10.004Z,96246.09
2022-09-18T16:21:45.335Z,96238.69
2022-09-18T16:24:25.439Z,96248.31
2022-09-18T16:27:06.308Z,96247.50
2022-09-18T16:29:40.329Z,96251.34
2022-09-18T16:32:13.899Z,96243.56
2022-09-18T16:34:48.078Z,96248.53
2022-09-18T16:37:23.066Z,96253.88
2022-09-18T16:39:56.164Z,96244.94
2022-09-18T16:42:30.426Z,96238.34
2022-09-18T16:45:03.298Z,96237.91
2022-09-18T16:47:37.101Z,96237.81
2022-09-18T16:50:11.662Z,96246.69
2022-09-18T16:52:44.647Z,96250.88
2022-09-18T16:55:17.682Z,96245.41
2022-09-18T16:57:52.223Z,96250.78
2022-09-18T17:00:25.584Z,96258.44
2022-09-18T17:03:00.565Z,96260.69
2022-09-18T17:05:35.784Z,96263.38
2022-09-18T17:08:10.879Z,96271.38
2022-09-18T17:10:45.282Z,96265.56
2022-09-18T17:13:18.327Z,96263.19
2022-09-18T17:15:52.438Z,96273.19
2022-09-18T17:18:25.377Z,96265.78
2022-09-18T17:21:01.988Z,96269.22
2022-09-18T17:23:34.839Z,96265.28
2022-09-18T17:30:49.165Z,96263.66
2022-09-18T17:33:22.117Z,96260.88
2022-09-18T17:35:56.436Z,96247.66
2022-09-18T17:38:42.481Z,96256.53
2022-09-18T17:41:23.309Z,96268.00
2022-09-18T17:43:56.199Z,96271.38
2022-09-18T17:47:32.053Z,96278.66
2022-09-18T17:51:28.855Z,96273.94
2022-09-18T17:53:43.959Z,96275.03
2022-09-18T17:59:54.651Z,96286.88
2022-09-18T18:06:12.855Z,96288.72
2022-09-18T18:08:47.261Z,96284.34
2022-09-18T18:11:22.711Z,96285.84
2022-09-18T18:13:56.320Z,96279.22
2022-09-18T18:16:31.238Z,96290.72
2022-09-18T18:19:12.245Z,96284.53
2022-09-18T18:21:45.190Z,96294.09
2022-09-18T18:24:21.940Z,96299.84
2022-09-18T18:26:55.798Z,96305.97
2022-09-18T18:29:28.878Z,96293.56
2022-09-18T18:32:02.109Z,96310.88
2022-09-18T18:34:35.124Z,96313.50
2022-09-18T18:37:08.009Z,96313.13
2022-09-18T18:39:42.281Z,96328.09
2022-09-18T18:42:15.216Z,96330.34
2022-09-18T18:44:48.074Z,96333.41
2022-09-18T18:47:21.054Z,96327.59
2022-09-18T18:49:54.282Z,96317.94
2022-09-18T18:52:27.217Z,96317.94
2022-09-18T18:55:02.024Z,96331.41
2022-09-18T18:58:08.705Z,96329.44
2022-09-18T19:00:39.669Z,96329.78
2022-09-18T19:03:12.757Z,96343.25
2022-09-18T19:05:45.861Z,96336.66
2022-09-18T19:08:18.776Z,96338.59
2022-09-18T19:10:58.219Z,96344.34
2022-09-18T19:13:32.223Z,96348.53
2022-09-18T19:16:05.469Z,96346.97
2022-09-18T19:18:39.017Z,96352.38
2022-09-18T19:21:11.917Z,96354.28
2022-09-18T19:23:44.741Z,96346.19
2022-09-18T19:26:20.858Z,96341.94
2022-09-18T19:28:55.320Z,96350.03
2022-09-18T19:31:31.167Z,96348.47
2022-09-18T19:34:05.236Z,96358.47
2022-09-18T19:36:39.445Z,96344.22
2022-09-18T19:39:14.563Z,96335.72
2022-09-18T19:41:53.392Z,96350.75
2022-09-18T19:44:32.512Z,96358.06
2022-09-18T19:47:15.251Z,96361.47
2022-09-18T19:49:49.361Z,96355.28
2022-09-18T19:52:24.448Z,96349.47
2022-09-18T19:54:58.713Z,96348.69
2022-09-18T19:57:32.999Z,96354.09
2022-09-18T20:00:06.781Z,96347.50
2022-09-18T20:02:41.351Z,96356.72
2022-09-18T20:05:14.210Z,96348.22
2022-09-18T20:07:52.948Z,96356.72
2022-09-18T20:10:25.873Z,96355.53
2022-09-18T20:13:00.841Z,96360.91
2022-09-18T20:15:33.656Z,96350.13
2022-09-18T20:18:08.475Z,96353.19
2022-09-18T20:20:41.609Z,96358.56
2022-09-18T20:23:15.650Z,96360.47
2022-09-18T20:25:52.839Z,96359.69
2022-09-18T20:28:28.051Z,96363.56
2022-09-18T20:31:02.992Z,96363.16
2022-09-18T20:33:36.661Z,96358.50
2022-09-18T20:36:13.636Z,96355.81
2022-09-18T20:38:47.365Z,96353.13
2022-09-18T20:41:23.203Z,96342.72
2022-09-18T20:44:01.236Z,96354.69
2022-09-18T20:46:37.527Z,96344.25
2022-09-18T20:49:18.543Z,96353.91
2022-09-18T20:51:51.707Z,96349.31
2022-09-18T20:54:24.857Z,96336.63
2022-09-18T20:56:57.982Z,96344.69
2022-09-18T20:59:35.151Z,96357.38
2022-09-18T21:02:08.967Z,96336.63
2022-09-18T21:04:47.109Z,96338.53
2022-09-18T21:07:21.516Z,96352.00
2022-09-18T21:09:57.670Z,96345.81
2022-09-18T21:12:38.703Z,96339.66
2022-09-18T21:15:15.498Z,96354.31
2022-09-18T21:17:51.480Z,96353.91
2022-09-18T21:20:25.162Z,96345.41
2022-09-18T21:23:23.901Z,96346.53
2022-09-18T21:25:57.884Z,96351.91
2022-09-18T21:28:30.784Z,96353.06
2022-09-18T21:31:12.037Z,96351.91
2022-09-18T21:33:45.279Z,96342.63
2022-09-18T21:36:18.157Z,96342.22
2022-09-18T21:38:52.522Z,96351.44
2022-09-18T21:41:26.552Z,96338.75
2022-09-18T21:43:59.764Z,96341.81
2022-09-18T21:46:37.006Z,96337.19
2022-09-18T21:49:09.871Z,96336.06
2022-09-18T21:51:43.504Z,96342.56
2022-09-18T21:54:18.173Z,96345.28
2022-09-18T21:56:52.538Z,96343.72
2022-09-18T21:59:26.846Z,96342.56
2022-09-18T22:02:03.482Z,96345.28
2022-09-18T22:04:38.114Z,96346.06
2022-09-18T22:07:12.220Z,96348.78
2022-09-18T22:09:45.664Z,96341.50
2022-09-18T22:12:18.931Z,96347.66
2022-09-18T22:14:51.862Z,96340.78
2022-09-18T22:17:27.105Z,96345.03
2022-09-18T22:20:00.093Z,96350.44
2022-09-18T22:22:33.036Z,96347.38
2022-09-18T22:25:06.682Z,96354.31
2022-09-18T22:27:40.247Z,96356.66
2022-09-18T22:30:13.745Z,96356.28
2022-09-18T22:32:48.362Z,96355.94
2022-09-18T22:35:21.245Z,96348.22
2022-09-18T22:37:54.743Z,96341.69
2022-09-18T22:40:27.725Z,96344.03
2022-09-18T22:43:01.414Z,96342.91
2022-09-18T22:45:34.433Z,96339.81
2022-09-18T22:48:08.966Z,96342.94
2022-09-18T22:50:43.473Z,96338.34
2022-09-18T22:53:16.830Z,96336.06
2022-09-18T22:55:49.738Z,96341.47
2022-09-18T22:58:22.828Z,96336.06
2022-09-18T23:00:55.652Z,96342.25
2022-09-18T23:03:30.217Z,96344.59
2022-09-18T23:06:03.351Z,96338.41
2022-09-18T23:08:37.090Z,96341.91
2022-09-18T23:11:12.373Z,96335.72
2022-09-18T23:13:50.247Z,96332.69
2022-09-18T23:16:24.842Z,96330.34
2022-09-18T23:19:02.615Z,96332.69
2022-09-18T23:21:36.593Z,96330.34
2022-09-18T23:24:10.733Z,96333.81
2022-09-18T23:26:46.983Z,96329.56
2022-09-18T23:29:22.810Z,96328.41
2022-09-18T23:31:57.558Z,96328.41
2022-09-18T23:34:33.777Z,96335.00
2022-09-18T23:37:06.686Z,96331.13
2022-09-18T23:39:39.637Z,96340.75
2022-09-18T23:42:12.761Z,96327.28
2022-09-18T23:44:45.666Z,96332.69
2022-09-18T23:47:18.989Z,96328.41
2022-09-18T23:49:53.265Z,96337.28
2022-09-18T23:52:26.465Z,96329.97
2022-09-18T23:54:59.504Z,96330.75
2022-09-18T23:57:32.364Z,96333.47
